sensor_id;sensor_type;location;lat;lon;timestamp;P1;durP1;ratioP1;P2;durP2;ratioP2
34471;SDS011;20710;49.976;19.836;2023-08-21T00:03:43;18.20;;;14.40;;
34471;SDS011;20710;49.976;19.836;2023-08-21T00:09:46;19.40;;;13.70;;
34471;SDS011;20710;49.976;19.836;2023-08-21T00:15:48;21.00;;;16.20;;
34471;SDS011;20710;49.976;19.836;2023-08-21T00:21:50;19.00;;;13.40;;
34471;SDS011;20710;49.976;19.836;2023-08-21T00:27:52;19.40;;;15.90;;
34471;SDS011;20710;49.976;19.836;2023-08-21T00:33:53;19.40;;;15.50;;
34471;SDS011;20710;49.976;19.836;2023-08-21T00:39:55;17.30;;;13.10;;
34471;SDS011;20710;49.976;19.836;2023-08-21T00:45:57;16.20;;;14.60;;
34471;SDS011;20710;49.976;19.836;2023-08-21T00:51:59;18.80;;;14.30;;
34471;SDS011;20710;49.976;19.836;2023-08-21T00:58:06;19.40;;;15.80;;
34471;SDS011;20710;49.976;19.836;2023-08-21T01:04:12;16.50;;;14.10;;
34471;SDS011;20710;49.976;19.836;2023-08-21T01:10:20;17.80;;;15.40;;
34471;SDS011;20710;49.976;19.836;2023-08-21T01:16:26;19.60;;;16.00;;
34471;SDS011;20710;49.976;19.836;2023-08-21T01:22:36;20.60;;;18.50;;
34471;SDS011;20710;49.976;19.836;2023-08-21T01:28:39;21.40;;;17.70;;
34471;SDS011;20710;49.976;19.836;2023-08-21T01:34:41;20.50;;;16.50;;
34471;SDS011;20710;49.976;19.836;2023-08-21T01:40:43;16.80;;;13.90;;
34471;SDS011;20710;49.976;19.836;2023-08-21T01:46:46;19.40;;;16.00;;
34471;SDS011;20710;49.976;19.836;2023-08-21T01:52:48;20.30;;;15.90;;
34471;SDS011;20710;49.976;19.836;2023-08-21T01:58:50;19.90;;;15.50;;
34471;SDS011;20710;49.976;19.836;2023-08-21T02:04:54;20.90;;;16.40;;
34471;SDS011;20710;49.976;19.836;2023-08-21T02:10:56;19.70;;;15.80;;
34471;SDS011;20710;49.976;19.836;2023-08-21T02:16:57;19.30;;;15.90;;
34471;SDS011;20710;49.976;19.836;2023-08-21T02:22:59;16.70;;;14.40;;
34471;SDS011;20710;49.976;19.836;2023-08-21T02:29:01;18.30;;;15.10;;
34471;SDS011;20710;49.976;19.836;2023-08-21T02:35:05;15.80;;;14.20;;
34471;SDS011;20710;49.976;19.836;2023-08-21T02:41:08;18.40;;;13.90;;
34471;SDS011;20710;49.976;19.836;2023-08-21T02:47:10;19.10;;;15.20;;
34471;SDS011;20710;49.976;19.836;2023-08-21T02:53:12;18.20;;;15.70;;
34471;SDS011;20710;49.976;19.836;2023-08-21T02:59:14;18.70;;;16.70;;
34471;SDS011;20710;49.976;19.836;2023-08-21T03:05:16;17.70;;;15.80;;
34471;SDS011;20710;49.976;19.836;2023-08-21T03:11:18;17.30;;;13.90;;
34471;SDS011;20710;49.976;19.836;2023-08-21T03:17:20;19.50;;;14.40;;
34471;SDS011;20710;49.976;19.836;2023-08-21T03:23:22;30.40;;;13.50;;
34471;SDS011;20710;49.976;19.836;2023-08-21T03:29:24;17.60;;;14.60;;
34471;SDS011;20710;49.976;19.836;2023-08-21T03:35:26;19.00;;;15.00;;
34471;SDS011;20710;49.976;19.836;2023-08-21T03:41:30;18.60;;;15.50;;
34471;SDS011;20710;49.976;19.836;2023-08-21T03:47:32;16.60;;;14.70;;
34471;SDS011;20710;49.976;19.836;2023-08-21T03:53:38;17.10;;;14.50;;
34471;SDS011;20710;49.976;19.836;2023-08-21T03:59:39;16.00;;;14.30;;
34471;SDS011;20710;49.976;19.836;2023-08-21T04:05:41;17.60;;;15.10;;
34471;SDS011;20710;49.976;19.836;2023-08-21T04:11:43;14.50;;;12.90;;
34471;SDS011;20710;49.976;19.836;2023-08-21T04:17:45;16.10;;;14.00;;
34471;SDS011;20710;49.976;19.836;2023-08-21T04:23:47;22.90;;;16.80;;
34471;SDS011;20710;49.976;19.836;2023-08-21T04:29:49;17.50;;;15.70;;
34471;SDS011;20710;49.976;19.836;2023-08-21T04:35:51;18.50;;;16.40;;
34471;SDS011;20710;49.976;19.836;2023-08-21T04:41:54;20.30;;;15.80;;
34471;SDS011;20710;49.976;19.836;2023-08-21T04:47:56;18.90;;;17.00;;
34471;SDS011;20710;49.976;19.836;2023-08-21T04:53:58;19.90;;;17.00;;
34471;SDS011;20710;49.976;19.836;2023-08-21T05:00:02;18.00;;;15.60;;
34471;SDS011;20710;49.976;19.836;2023-08-21T05:06:08;18.70;;;15.50;;
34471;SDS011;20710;49.976;19.836;2023-08-21T05:12:12;16.60;;;14.70;;
34471;SDS011;20710;49.976;19.836;2023-08-21T05:18:14;17.70;;;15.40;;
34471;SDS011;20710;49.976;19.836;2023-08-21T05:24:16;16.50;;;14.40;;
34471;SDS011;20710;49.976;19.836;2023-08-21T05:30:22;19.50;;;14.80;;
34471;SDS011;20710;49.976;19.836;2023-08-21T05:36:24;20.00;;;15.10;;
34471;SDS011;20710;49.976;19.836;2023-08-21T05:42:26;23.70;;;16.50;;
34471;SDS011;20710;49.976;19.836;2023-08-21T05:48:29;28.20;;;16.20;;
34471;SDS011;20710;49.976;19.836;2023-08-21T05:54:31;25.70;;;17.90;;
34471;SDS011;20710;49.976;19.836;2023-08-21T06:00:37;18.10;;;15.70;;
34471;SDS011;20710;49.976;19.836;2023-08-21T06:06:40;18.90;;;15.90;;
34471;SDS011;20710;49.976;19.836;2023-08-21T06:12:42;14.30;;;12.80;;
34471;SDS011;20710;49.976;19.836;2023-08-21T06:18:44;14.40;;;13.00;;
34471;SDS011;20710;49.976;19.836;2023-08-21T06:24:46;13.60;;;12.10;;
34471;SDS011;20710;49.976;19.836;2023-08-21T06:30:57;13.90;;;12.10;;
34471;SDS011;20710;49.976;19.836;2023-08-21T06:37:00;14.50;;;12.60;;
34471;SDS011;20710;49.976;19.836;2023-08-21T06:43:02;13.50;;;11.70;;
34471;SDS011;20710;49.976;19.836;2023-08-21T06:49:08;13.00;;;11.70;;
34471;SDS011;20710;49.976;19.836;2023-08-21T06:55:10;12.90;;;11.50;;
34471;SDS011;20710;49.976;19.836;2023-08-21T07:01:11;16.40;;;12.80;;
34471;SDS011;20710;49.976;19.836;2023-08-21T07:07:13;17.70;;;12.90;;
34471;SDS011;20710;49.976;19.836;2023-08-21T07:13:15;16.30;;;14.50;;
34471;SDS011;20710;49.976;19.836;2023-08-21T07:19:17;15.40;;;13.50;;
34471;SDS011;20710;49.976;19.836;2023-08-21T07:25:19;16.90;;;14.80;;
34471;SDS011;20710;49.976;19.836;2023-08-21T07:31:21;20.00;;;13.60;;
34471;SDS011;20710;49.976;19.836;2023-08-21T07:37:24;22.80;;;15.10;;
34471;SDS011;20710;49.976;19.836;2023-08-21T07:43:26;30.80;;;19.90;;
34471;SDS011;20710;49.976;19.836;2023-08-21T07:49:28;31.90;;;19.80;;
34471;SDS011;20710;49.976;19.836;2023-08-21T07:55:30;27.10;;;18.40;;
34471;SDS011;20710;49.976;19.836;2023-08-21T08:01:32;19.50;;;14.30;;
34471;SDS011;20710;49.976;19.836;2023-08-21T08:07:34;18.30;;;13.20;;
34471;SDS011;20710;49.976;19.836;2023-08-21T08:13:39;23.80;;;13.80;;
34471;SDS011;20710;49.976;19.836;2023-08-21T08:19:42;14.40;;;12.60;;
34471;SDS011;20710;49.976;19.836;2023-08-21T08:25:44;16.90;;;13.80;;
34471;SDS011;20710;49.976;19.836;2023-08-21T08:31:47;16.10;;;14.40;;
34471;SDS011;20710;49.976;19.836;2023-08-21T08:37:48;14.40;;;12.80;;
34471;SDS011;20710;49.976;19.836;2023-08-21T08:43:50;18.00;;;12.50;;
34471;SDS011;20710;49.976;19.836;2023-08-21T08:49:56;15.90;;;12.20;;
34471;SDS011;20710;49.976;19.836;2023-08-21T08:55:58;17.40;;;12.80;;
34471;SDS011;20710;49.976;19.836;2023-08-21T09:02:00;15.60;;;12.20;;
34471;SDS011;20710;49.976;19.836;2023-08-21T09:08:03;16.20;;;13.20;;
34471;SDS011;20710;49.976;19.836;2023-08-21T09:14:06;17.10;;;13.50;;
34471;SDS011;20710;49.976;19.836;2023-08-21T09:20:09;20.20;;;14.70;;
34471;SDS011;20710;49.976;19.836;2023-08-21T09:26:19;23.00;;;15.80;;
34471;SDS011;20710;49.976;19.836;2023-08-21T09:32:22;20.80;;;16.00;;
34471;SDS011;20710;49.976;19.836;2023-08-21T09:38:25;24.20;;;17.50;;
34471;SDS011;20710;49.976;19.836;2023-08-21T09:44:28;21.10;;;16.60;;
34471;SDS011;20710;49.976;19.836;2023-08-21T09:50:30;24.20;;;18.30;;
34471;SDS011;20710;49.976;19.836;2023-08-21T09:56:31;28.60;;;18.40;;
34471;SDS011;20710;49.976;19.836;2023-08-21T10:02:35;23.40;;;18.30;;
34471;SDS011;20710;49.976;19.836;2023-08-21T10:08:38;28.80;;;19.60;;
34471;SDS011;20710;49.976;19.836;2023-08-21T10:14:43;26.40;;;21.10;;
34471;SDS011;20710;49.976;19.836;2023-08-21T10:20:45;27.60;;;19.90;;
34471;SDS011;20710;49.976;19.836;2023-08-21T10:26:47;28.90;;;20.10;;
34471;SDS011;20710;49.976;19.836;2023-08-21T10:32:59;24.80;;;19.70;;
34471;SDS011;20710;49.976;19.836;2023-08-21T10:39:01;28.00;;;20.70;;
34471;SDS011;20710;49.976;19.836;2023-08-21T10:45:10;29.10;;;21.00;;
34471;SDS011;20710;49.976;19.836;2023-08-21T10:51:12;31.60;;;21.20;;
34471;SDS011;20710;49.976;19.836;2023-08-21T10:57:15;29.70;;;21.10;;
34471;SDS011;20710;49.976;19.836;2023-08-21T11:03:17;30.80;;;21.80;;
34471;SDS011;20710;49.976;19.836;2023-08-21T11:09:19;29.50;;;21.00;;
34471;SDS011;20710;49.976;19.836;2023-08-21T11:15:21;28.40;;;19.60;;
34471;SDS011;20710;49.976;19.836;2023-08-21T11:21:26;25.40;;;19.60;;
34471;SDS011;20710;49.976;19.836;2023-08-21T11:27:27;35.60;;;20.20;;
34471;SDS011;20710;49.976;19.836;2023-08-21T11:33:30;28.40;;;19.30;;
34471;SDS011;20710;49.976;19.836;2023-08-21T11:39:42;26.60;;;17.90;;
34471;SDS011;20710;49.976;19.836;2023-08-21T11:45:48;24.50;;;18.70;;
34471;SDS011;20710;49.976;19.836;2023-08-21T11:51:52;24.50;;;18.50;;
34471;SDS011;20710;49.976;19.836;2023-08-21T11:57:54;27.70;;;18.70;;
34471;SDS011;20710;49.976;19.836;2023-08-21T12:03:56;23.90;;;17.30;;
34471;SDS011;20710;49.976;19.836;2023-08-21T12:09:58;19.60;;;16.30;;
34471;SDS011;20710;49.976;19.836;2023-08-21T12:16:00;21.50;;;16.80;;
34471;SDS011;20710;49.976;19.836;2023-08-21T12:22:04;18.90;;;14.80;;
34471;SDS011;20710;49.976;19.836;2023-08-21T12:28:06;17.10;;;14.90;;
34471;SDS011;20710;49.976;19.836;2023-08-21T12:34:08;19.10;;;14.00;;
34471;SDS011;20710;49.976;19.836;2023-08-21T12:40:10;17.60;;;14.40;;
34471;SDS011;20710;49.976;19.836;2023-08-21T12:46:12;16.90;;;14.80;;
34471;SDS011;20710;49.976;19.836;2023-08-21T12:52:14;15.80;;;13.10;;
34471;SDS011;20710;49.976;19.836;2023-08-21T12:58:16;16.90;;;14.00;;
34471;SDS011;20710;49.976;19.836;2023-08-21T13:04:20;15.50;;;13.10;;
34471;SDS011;20710;49.976;19.836;2023-08-21T13:10:22;18.90;;;15.20;;
34471;SDS011;20710;49.976;19.836;2023-08-21T13:16:24;19.40;;;15.20;;
34471;SDS011;20710;49.976;19.836;2023-08-21T13:22:26;20.60;;;16.60;;
34471;SDS011;20710;49.976;19.836;2023-08-21T13:28:28;22.20;;;15.50;;
34471;SDS011;20710;49.976;19.836;2023-08-21T13:34:30;21.60;;;15.00;;
34471;SDS011;20710;49.976;19.836;2023-08-21T13:40:32;15.30;;;13.60;;
34471;SDS011;20710;49.976;19.836;2023-08-21T13:46:34;18.20;;;14.10;;
34471;SDS011;20710;49.976;19.836;2023-08-21T13:52:37;18.00;;;13.10;;
34471;SDS011;20710;49.976;19.836;2023-08-21T13:58:41;18.50;;;13.30;;
34471;SDS011;20710;49.976;19.836;2023-08-21T14:04:43;14.60;;;12.20;;
34471;SDS011;20710;49.976;19.836;2023-08-21T14:10:45;15.70;;;13.90;;
34471;SDS011;20710;49.976;19.836;2023-08-21T14:16:46;13.80;;;12.40;;
34471;SDS011;20710;49.976;19.836;2023-08-21T14:22:48;19.00;;;13.10;;
34471;SDS011;20710;49.976;19.836;2023-08-21T14:28:50;16.80;;;12.20;;
34471;SDS011;20710;49.976;19.836;2023-08-21T14:34:52;14.10;;;12.30;;
34471;SDS011;20710;49.976;19.836;2023-08-21T14:40:55;16.90;;;13.20;;
34471;SDS011;20710;49.976;19.836;2023-08-21T14:46:57;14.30;;;12.60;;
34471;SDS011;20710;49.976;19.836;2023-08-21T14:52:59;15.20;;;12.00;;
34471;SDS011;20710;49.976;19.836;2023-08-21T14:59:01;15.80;;;13.50;;
34471;SDS011;20710;49.976;19.836;2023-08-21T15:05:03;18.70;;;14.00;;
34471;SDS011;20710;49.976;19.836;2023-08-21T15:11:16;15.90;;;13.50;;
34471;SDS011;20710;49.976;19.836;2023-08-21T15:17:18;18.60;;;14.40;;
34471;SDS011;20710;49.976;19.836;2023-08-21T15:23:20;15.60;;;13.80;;
34471;SDS011;20710;49.976;19.836;2023-08-21T15:29:22;16.10;;;13.20;;
34471;SDS011;20710;49.976;19.836;2023-08-21T15:35:25;16.10;;;13.90;;
34471;SDS011;20710;49.976;19.836;2023-08-21T15:41:27;19.20;;;13.50;;
34471;SDS011;20710;49.976;19.836;2023-08-21T15:47:29;15.10;;;13.50;;
34471;SDS011;20710;49.976;19.836;2023-08-21T15:53:31;15.50;;;13.90;;
34471;SDS011;20710;49.976;19.836;2023-08-21T15:59:33;15.70;;;14.00;;
34471;SDS011;20710;49.976;19.836;2023-08-21T16:05:35;17.00;;;13.00;;
34471;SDS011;20710;49.976;19.836;2023-08-21T16:11:37;17.40;;;12.90;;
34471;SDS011;20710;49.976;19.836;2023-08-21T16:17:39;17.10;;;13.20;;
34471;SDS011;20710;49.976;19.836;2023-08-21T16:23:41;15.50;;;12.70;;
34471;SDS011;20710;49.976;19.836;2023-08-21T16:29:43;20.60;;;14.40;;
34471;SDS011;20710;49.976;19.836;2023-08-21T16:35:45;18.00;;;14.10;;
34471;SDS011;20710;49.976;19.836;2023-08-21T16:41:47;17.30;;;14.10;;
34471;SDS011;20710;49.976;19.836;2023-08-21T16:47:49;20.90;;;15.10;;
34471;SDS011;20710;49.976;19.836;2023-08-21T17:01:46;17.10;;;12.80;;
34471;SDS011;20710;49.976;19.836;2023-08-21T17:07:48;14.80;;;13.30;;
34471;SDS011;20710;49.976;19.836;2023-08-21T17:13:49;16.50;;;14.10;;
34471;SDS011;20710;49.976;19.836;2023-08-21T17:19:51;71.00;;;28.70;;
34471;SDS011;20710;49.976;19.836;2023-08-21T17:25:53;37.80;;;20.30;;
34471;SDS011;20710;49.976;19.836;2023-08-21T17:31:55;19.50;;;17.00;;
34471;SDS011;20710;49.976;19.836;2023-08-21T17:38:06;20.30;;;15.40;;
34471;SDS011;20710;49.976;19.836;2023-08-21T17:58:09;21.20;;;15.70;;
34471;SDS011;20710;49.976;19.836;2023-08-21T18:10:46;23.50;;;17.20;;
34471;SDS011;20710;49.976;19.836;2023-08-21T18:16:48;23.80;;;17.80;;
34471;SDS011;20710;49.976;19.836;2023-08-21T18:50:50;18.30;;;15.50;;
34471;SDS011;20710;49.976;19.836;2023-08-21T18:56:52;19.00;;;15.90;;
34471;SDS011;20710;49.976;19.836;2023-08-21T19:15:52;17.30;;;15.50;;
34471;SDS011;20710;49.976;19.836;2023-08-21T19:21:53;17.00;;;13.40;;
34471;SDS011;20710;49.976;19.836;2023-08-21T19:34:36;15.80;;;14.00;;
34471;SDS011;20710;49.976;19.836;2023-08-21T20:00:39;17.60;;;15.80;;
34471;SDS011;20710;49.976;19.836;2023-08-21T20:06:41;18.00;;;15.30;;
34471;SDS011;20710;49.976;19.836;2023-08-21T20:19:35;17.90;;;16.10;;
34471;SDS011;20710;49.976;19.836;2023-08-21T20:25:42;21.10;;;16.40;;
34471;SDS011;20710;49.976;19.836;2023-08-21T20:31:47;19.10;;;17.00;;
34471;SDS011;20710;49.976;19.836;2023-08-21T20:37:49;20.90;;;16.60;;
34471;SDS011;20710;49.976;19.836;2023-08-21T21:03:48;23.00;;;18.10;;
34471;SDS011;20710;49.976;19.836;2023-08-21T21:09:50;21.30;;;17.40;;
34471;SDS011;20710;49.976;19.836;2023-08-21T21:16:04;16.30;;;14.60;;
34471;SDS011;20710;49.976;19.836;2023-08-21T21:22:08;21.00;;;18.10;;
34471;SDS011;20710;49.976;19.836;2023-08-21T21:30:10;17.30;;;15.50;;
34471;SDS011;20710;49.976;19.836;2023-08-21T21:36:12;17.00;;;14.50;;
34471;SDS011;20710;49.976;19.836;2023-08-21T21:42:14;20.90;;;17.20;;
34471;SDS011;20710;49.976;19.836;2023-08-21T21:48:16;20.90;;;18.00;;
34471;SDS011;20710;49.976;19.836;2023-08-21T21:54:17;20.40;;;16.30;;
34471;SDS011;20710;49.976;19.836;2023-08-21T22:07:18;20.60;;;17.80;;
34471;SDS011;20710;49.976;19.836;2023-08-21T22:20:15;17.20;;;15.30;;
34471;SDS011;20710;49.976;19.836;2023-08-21T22:26:17;18.80;;;16.80;;
34471;SDS011;20710;49.976;19.836;2023-08-21T22:40:14;21.50;;;17.80;;
34471;SDS011;20710;49.976;19.836;2023-08-21T22:46:27;19.80;;;17.20;;
34471;SDS011;20710;49.976;19.836;2023-08-21T23:05:25;21.00;;;18.50;;
34471;SDS011;20710;49.976;19.836;2023-08-21T23:18:48;21.50;;;17.60;;
34471;SDS011;20710;49.976;19.836;2023-08-21T23:31:17;24.80;;;18.10;;
34471;SDS011;20710;49.976;19.836;2023-08-21T23:37:19;19.60;;;16.40;;
34471;SDS011;20710;49.976;19.836;2023-08-21T23:50:15;17.70;;;15.10;;
34471;SDS011;20710;49.976;19.836;2023-08-21T23:56:22;19.90;;;17.30;;
